This is the latest recevied weather packets stored in our database for station/object PY2KO-13. If no packets are shown the sender has not sent any weather packets the latest 10 day(s).
| Time | Temp. | Humidity | Pressure | Rain* | Wind** | Luminosity | Snow |
|---|---|---|---|---|---|---|---|
| 1777290305 | 26.11° C | 58% | 1016.5 hPa | - | - | - | - |
| 1777288505 | 25.56° C | 59% | 1016.2 hPa | - | - | - | - |
| 1777286705 | 25° C | 63% | 1016 hPa | - | - | - | - |
| 1777284904 | 25° C | 69% | 1015.6 hPa | - | - | - | - |
| 1777283105 | 24.44° C | 71% | 1015.1 hPa | - | - | - | - |
| 1777281305 | 24.44° C | 72% | 1014.9 hPa | - | - | - | - |
| 1777279505 | 23.89° C | 75% | 1014.4 hPa | - | - | - | - |
| 1777277705 | 24.44° C | 75% | 1014 hPa | - | - | - | - |
| 1777275905 | 23.89° C | 79% | 1013.5 hPa | - | - | - | - |
| 1777274104 | 23.89° C | 81% | 1013.5 hPa | - | - | - | - |
| 1777272307 | 23.33° C | 81% | 1013.5 hPa | - | - | - | - |
| 1777270505 | 23.89° C | 80% | 1013.5 hPa | - | - | - | - |
| 1777268705 | 23.89° C | 79% | 1013.7 hPa | - | - | - | - |
| 1777266905 | 23.89° C | 78% | 1013.8 hPa | - | - | - | - |
| 1777265105 | 23.33° C | 80% | 1013.8 hPa | - | - | - | - |
| 1777263305 | 23.89° C | 77% | 1014.2 hPa | - | - | - | - |
| 1777261506 | 24.44° C | 70% | 1014.7 hPa | - | - | - | - |
| 1777259705 | 25.56° C | 62% | 1014.6 hPa | - | - | - | - |
| 1777257905 | 26.11° C | 57% | 1014.7 hPa | - | - | - | - |
| 1777256105 | 26.67° C | 55% | 1014.4 hPa | - | - | - | - |
| 1777254305 | 26.67° C | 54% | 1014.4 hPa | - | - | - | - |
| 1777252505 | 26.67° C | 53% | 1014.4 hPa | - | - | - | - |
| 1777250704 | 27.22° C | 52% | 1014.4 hPa | - | - | - | - |
| 1777248904 | 27.22° C | 51% | 1014.1 hPa | - | - | - | - |
| 1777247105 | 27.78° C | 51% | 1014.1 hPa | - | - | - | - |
* Rain since midnight (hover to see other rain measurements)
** Current wind speed in m/s (hover to see current wind gust speed)